createdAt,value
2022-11-10T00:00:45.036Z,11.45
2022-11-10T00:01:45.048Z,11.46
2022-11-10T00:02:45.020Z,11.46
2022-11-10T00:03:45.035Z,11.46
2022-11-10T00:04:44.975Z,11.45
2022-11-10T00:05:44.963Z,11.44
2022-11-10T00:06:45.016Z,11.45
2022-11-10T00:07:44.979Z,11.45
2022-11-10T00:08:44.923Z,11.45
2022-11-10T00:09:44.914Z,11.46
2022-11-10T00:10:44.919Z,11.48
2022-11-10T00:11:44.882Z,11.49
2022-11-10T00:12:44.884Z,11.51
2022-11-10T00:13:44.872Z,11.53
2022-11-10T00:14:44.857Z,11.54
2022-11-10T00:15:44.833Z,11.56
2022-11-10T00:16:44.836Z,11.57
2022-11-10T00:17:44.816Z,11.57
2022-11-10T00:18:44.811Z,11.57
2022-11-10T00:19:44.774Z,11.57
2022-11-10T00:20:44.773Z,11.59
2022-11-10T00:21:44.767Z,11.57
2022-11-10T00:22:44.743Z,11.60
2022-11-10T00:23:44.743Z,11.59
2022-11-10T00:24:44.745Z,11.60
2022-11-10T00:25:44.726Z,11.62
2022-11-10T00:26:44.705Z,11.59
2022-11-10T00:27:44.685Z,11.60
2022-11-10T00:28:44.695Z,11.60
2022-11-10T00:29:44.684Z,11.60
2022-11-10T00:30:46.890Z,11.59
2022-11-10T00:31:44.621Z,11.59
2022-11-10T00:32:44.612Z,11.57
2022-11-10T00:33:44.609Z,11.57
2022-11-10T00:34:44.599Z,11.56
2022-11-10T00:35:44.569Z,11.56
2022-11-10T00:36:44.562Z,11.53
2022-11-10T00:37:44.542Z,11.53
2022-11-10T00:38:44.543Z,11.53
2022-11-10T00:39:44.532Z,11.49
2022-11-10T00:40:44.521Z,11.49
2022-11-10T00:41:44.493Z,11.46
2022-11-10T00:42:44.498Z,11.48
2022-11-10T00:43:44.461Z,11.46
2022-11-10T00:44:44.472Z,11.45
2022-11-10T00:45:44.452Z,11.44
2022-11-10T00:46:44.463Z,11.44
2022-11-10T00:47:44.423Z,11.42
2022-11-10T00:48:44.418Z,11.41
2022-11-10T00:49:44.406Z,11.41
2022-11-10T00:50:44.393Z,11.39
2022-11-10T00:51:44.391Z,11.39
2022-11-10T00:52:44.349Z,11.38
2022-11-10T00:53:44.339Z,11.38
2022-11-10T00:54:44.341Z,11.36
2022-11-10T00:55:44.322Z,11.35
2022-11-10T00:56:44.311Z,11.35
2022-11-10T00:57:44.313Z,11.33
2022-11-10T00:58:44.284Z,11.33
2022-11-10T00:59:44.257Z,11.35
2022-11-10T01:00:44.360Z,11.33
2022-11-10T01:01:44.236Z,11.31
2022-11-10T01:02:44.236Z,11.35
2022-11-10T01:03:44.222Z,11.33
2022-11-10T01:04:44.211Z,11.33
2022-11-10T01:05:44.178Z,11.33
2022-11-10T01:06:44.222Z,11.30
2022-11-10T01:07:44.170Z,11.28
2022-11-10T01:08:44.180Z,11.28
2022-11-10T01:09:44.128Z,11.27
2022-11-10T01:10:44.130Z,11.30
2022-11-10T01:11:44.107Z,11.28
2022-11-10T01:12:44.094Z,11.27
2022-11-10T01:13:44.090Z,11.27
2022-11-10T01:14:44.088Z,11.27
2022-11-10T01:15:44.072Z,11.27
2022-11-10T01:16:44.039Z,11.27
2022-11-10T01:17:44.025Z,11.26
2022-11-10T01:18:44.006Z,11.26
2022-11-10T01:19:43.996Z,11.24
2022-11-10T01:20:44.003Z,11.26
2022-11-10T01:21:43.991Z,11.24
2022-11-10T01:22:43.995Z,11.23
2022-11-10T01:23:43.951Z,11.24
2022-11-10T01:24:43.926Z,11.23
2022-11-10T01:25:43.949Z,11.23
2022-11-10T01:26:43.913Z,11.26
2022-11-10T01:27:43.897Z,11.23
2022-11-10T01:28:43.875Z,11.23
2022-11-10T01:29:43.872Z,11.21
2022-11-10T01:30:43.861Z,11.20
2022-11-10T01:31:43.924Z,11.17
2022-11-10T01:32:43.824Z,11.17
2022-11-10T01:33:43.838Z,11.17
2022-11-10T01:34:43.815Z,11.16
2022-11-10T01:35:43.809Z,11.16
2022-11-10T01:36:43.822Z,11.13
2022-11-10T01:37:43.799Z,11.12
2022-11-10T01:38:43.766Z,11.09
2022-11-10T01:39:43.758Z,11.11
2022-11-10T01:40:43.837Z,11.08
2022-11-10T01:41:43.727Z,11.09
2022-11-10T01:42:43.717Z,11.08
2022-11-10T01:43:43.696Z,11.11
2022-11-10T01:44:43.670Z,11.12
2022-11-10T01:45:43.662Z,11.12
2022-11-10T01:46:43.652Z,11.12
2022-11-10T01:47:43.640Z,11.12
2022-11-10T01:48:43.632Z,11.12
2022-11-10T01:49:50.703Z,11.11
2022-11-10T01:50:46.275Z,11.11
2022-11-10T01:51:46.297Z,11.09
2022-11-10T01:52:43.564Z,11.09
2022-11-10T01:53:43.598Z,11.08
2022-11-10T01:54:43.553Z,11.08
2022-11-10T01:55:43.548Z,11.06
2022-11-10T01:56:43.527Z,11.06
2022-11-10T01:57:43.514Z,11.06
2022-11-10T01:58:43.518Z,11.05
2022-11-10T01:59:43.497Z,11.03
2022-11-10T02:00:43.520Z,11.02
2022-11-10T02:01:43.467Z,11.02
2022-11-10T02:02:43.456Z,11.02
2022-11-10T02:03:43.423Z,11.02
2022-11-10T02:04:43.448Z,11.03
2022-11-10T02:05:43.402Z,11.03
2022-11-10T02:06:43.418Z,11.02
2022-11-10T02:07:43.397Z,11.03
2022-11-10T02:08:43.375Z,11.02
2022-11-10T02:09:43.364Z,11.03
2022-11-10T02:10:43.372Z,11.02
2022-11-10T02:11:43.355Z,11.02
2022-11-10T02:12:43.311Z,11.02
2022-11-10T02:13:43.291Z,11.02
2022-11-10T02:14:43.289Z,11.01
2022-11-10T02:15:43.295Z,10.99
2022-11-10T02:16:43.268Z,10.99
2022-11-10T02:17:43.254Z,11.01
2022-11-10T02:18:43.246Z,10.99
2022-11-10T02:19:43.218Z,10.98
2022-11-10T02:20:43.213Z,10.95
2022-11-10T02:21:43.211Z,10.99
2022-11-10T02:22:43.183Z,10.98
2022-11-10T02:23:43.204Z,10.94
2022-11-10T02:24:43.171Z,10.93
2022-11-10T02:25:43.153Z,10.91
2022-11-10T02:26:43.132Z,10.90
2022-11-10T02:27:43.143Z,10.90
2022-11-10T02:28:43.110Z,10.88
2022-11-10T02:29:43.100Z,10.86
2022-11-10T02:30:43.083Z,10.86
2022-11-10T02:31:43.080Z,10.84
2022-11-10T02:32:43.048Z,10.83
2022-11-10T02:33:43.069Z,10.81
2022-11-10T02:34:43.027Z,10.80
2022-11-10T02:35:43.016Z,10.78
2022-11-10T02:36:43.013Z,10.76
2022-11-10T02:37:43.001Z,10.76
2022-11-10T02:38:42.967Z,10.76
2022-11-10T02:39:42.980Z,10.76
2022-11-10T02:40:42.960Z,10.76
2022-11-10T02:41:42.949Z,10.75
2022-11-10T02:42:42.940Z,10.75
2022-11-10T02:43:43.037Z,10.73
2022-11-10T02:44:42.893Z,10.75
2022-11-10T02:45:42.898Z,10.75
2022-11-10T02:46:42.867Z,10.75
2022-11-10T02:47:42.869Z,10.76
2022-11-10T02:48:42.836Z,10.76
2022-11-10T02:49:42.852Z,10.76
2022-11-10T02:50:42.890Z,10.80
2022-11-10T02:51:42.819Z,10.81
2022-11-10T02:52:42.809Z,10.83
2022-11-10T02:53:42.786Z,10.86
2022-11-10T02:54:42.766Z,10.84
2022-11-10T02:55:42.757Z,10.86
2022-11-10T02:56:42.779Z,10.87
2022-11-10T02:57:42.725Z,10.88
2022-11-10T02:58:42.728Z,10.88
2022-11-10T02:59:42.724Z,10.88
2022-11-10T03:00:42.707Z,10.88
2022-11-10T03:01:42.791Z,10.88
2022-11-10T03:02:42.672Z,10.84
2022-11-10T03:03:42.643Z,10.86
2022-11-10T03:04:42.656Z,10.86
2022-11-10T03:05:42.652Z,10.84
2022-11-10T03:06:42.646Z,10.84
2022-11-10T03:07:42.622Z,10.83
2022-11-10T03:08:42.595Z,10.80
2022-11-10T03:09:42.586Z,10.81
2022-11-10T03:10:42.582Z,10.80
2022-11-10T03:11:42.576Z,10.78
2022-11-10T03:12:42.557Z,10.76
2022-11-10T03:14:00.381Z,10.75
2022-11-10T03:14:43.517Z,10.75
2022-11-10T03:15:42.501Z,10.75
2022-11-10T03:16:42.482Z,10.76
2022-11-10T03:17:42.490Z,10.76
2022-11-10T03:18:42.474Z,10.76
2022-11-10T03:19:42.461Z,10.73
2022-11-10T03:20:42.430Z,10.76
2022-11-10T03:21:42.431Z,10.78
2022-11-10T03:22:42.412Z,10.76
2022-11-10T03:23:42.413Z,10.76
2022-11-10T03:24:42.399Z,10.78
2022-11-10T03:25:42.385Z,10.80
2022-11-10T03:26:42.361Z,10.78
2022-11-10T03:27:42.352Z,10.78
2022-11-10T03:28:42.334Z,10.81
2022-11-10T03:29:42.320Z,10.78
2022-11-10T03:30:42.324Z,10.76
2022-11-10T03:31:42.303Z,10.78
2022-11-10T03:32:42.292Z,10.78
2022-11-10T03:33:42.274Z,10.78
2022-11-10T03:34:42.259Z,10.78
2022-11-10T03:35:42.256Z,10.80
2022-11-10T03:36:42.251Z,10.78
2022-11-10T03:37:42.233Z,10.76
2022-11-10T03:38:42.200Z,10.78
2022-11-10T03:39:42.199Z,10.78
2022-11-10T03:41:18.198Z,10.76
2022-11-10T03:41:43.190Z,10.78
2022-11-10T03:42:42.165Z,10.75
2022-11-10T03:43:42.152Z,10.75
2022-11-10T03:44:42.142Z,10.72
2022-11-10T03:45:42.132Z,10.73
2022-11-10T03:46:43.579Z,10.70
2022-11-10T03:47:42.132Z,10.72
2022-11-10T03:48:42.088Z,10.72
2022-11-10T03:49:42.068Z,10.72
2022-11-10T03:50:42.048Z,10.70
2022-11-10T03:51:42.053Z,10.72
2022-11-10T03:52:42.052Z,10.70
2022-11-10T03:53:42.050Z,10.72
2022-11-10T03:54:42.019Z,10.70
2022-11-10T03:55:41.988Z,10.69
2022-11-10T03:56:41.977Z,10.69
2022-11-10T03:57:41.981Z,10.69
2022-11-10T03:58:41.945Z,10.68
2022-11-10T03:59:41.954Z,10.66
2022-11-10T04:00:41.924Z,10.68
2022-11-10T04:01:41.954Z,10.66
2022-11-10T04:02:41.899Z,10.63
2022-11-10T04:03:41.884Z,10.62
2022-11-10T04:04:41.888Z,10.60
2022-11-10T04:05:41.856Z,10.58
2022-11-10T04:06:41.899Z,10.55
2022-11-10T04:07:41.850Z,10.54
2022-11-10T04:08:41.869Z,10.55
2022-11-10T04:09:41.828Z,10.49
2022-11-10T04:10:41.828Z,10.47
2022-11-10T04:11:41.799Z,10.46
2022-11-10T04:12:41.766Z,10.44
2022-11-10T04:13:41.767Z,10.39
2022-11-10T04:14:41.764Z,10.36
2022-11-10T04:15:41.738Z,10.35
2022-11-10T04:16:41.724Z,10.34
2022-11-10T04:17:41.739Z,10.32
2022-11-10T04:18:41.684Z,10.31
2022-11-10T04:19:41.706Z,10.29
2022-11-10T04:20:41.674Z,10.28
2022-11-10T04:21:41.651Z,10.29
2022-11-10T04:22:41.644Z,10.25
2022-11-10T04:23:41.644Z,10.24
2022-11-10T04:24:41.603Z,10.22
2022-11-10T04:25:41.602Z,10.24
2022-11-10T04:26:41.607Z,10.24
2022-11-10T04:27:41.595Z,10.24
2022-11-10T04:28:41.563Z,10.20
2022-11-10T04:29:41.577Z,10.20
2022-11-10T04:30:41.545Z,10.18
2022-11-10T04:31:41.524Z,10.22
2022-11-10T04:32:41.546Z,10.22
2022-11-10T04:33:41.517Z,10.20
2022-11-10T04:34:41.482Z,10.20
2022-11-10T04:35:41.484Z,10.26
2022-11-10T04:36:41.463Z,10.25
2022-11-10T04:37:41.453Z,10.24
2022-11-10T04:38:41.468Z,10.26
2022-11-10T04:39:41.447Z,10.26
2022-11-10T04:40:41.405Z,10.24
2022-11-10T04:41:41.399Z,10.26
2022-11-10T04:42:41.396Z,10.26
2022-11-10T04:43:41.385Z,10.28
2022-11-10T04:44:41.369Z,10.28
2022-11-10T04:45:41.341Z,10.28
2022-11-10T04:46:41.345Z,10.31
2022-11-10T04:47:41.320Z,10.31
2022-11-10T04:48:41.302Z,10.32
2022-11-10T04:49:41.342Z,10.34
2022-11-10T04:50:41.280Z,10.35
2022-11-10T04:51:41.311Z,10.36
2022-11-10T04:52:41.267Z,10.35
2022-11-10T04:53:41.253Z,10.36
2022-11-10T04:54:41.227Z,10.36
2022-11-10T04:55:41.245Z,10.36
2022-11-10T04:56:41.222Z,10.35
2022-11-10T04:57:41.190Z,10.35
2022-11-10T04:58:41.179Z,10.34
2022-11-10T04:59:41.178Z,10.29
2022-11-10T05:00:41.215Z,10.31
2022-11-10T05:01:41.150Z,10.28
2022-11-10T05:02:41.147Z,10.25
2022-11-10T05:03:41.141Z,10.24
2022-11-10T05:04:41.111Z,10.22
2022-11-10T05:05:41.141Z,10.24
2022-11-10T05:06:41.163Z,10.22
2022-11-10T05:07:41.077Z,10.24
2022-11-10T05:08:41.045Z,10.24
2022-11-10T05:09:41.045Z,10.25
2022-11-10T05:10:41.019Z,10.24
2022-11-10T05:11:41.040Z,10.22
2022-11-10T05:12:40.996Z,10.22
2022-11-10T05:13:41.000Z,10.22
2022-11-10T05:14:40.981Z,10.24
2022-11-10T05:15:40.982Z,10.24
2022-11-10T05:16:40.960Z,10.24
2022-11-10T05:17:40.957Z,10.22
2022-11-10T05:18:40.938Z,10.20
2022-11-10T05:19:40.958Z,10.20
2022-11-10T05:20:40.918Z,10.18
2022-11-10T05:21:40.875Z,10.20
2022-11-10T05:22:44.140Z,10.18
2022-11-10T05:23:41.910Z,10.18
2022-11-10T05:24:40.858Z,10.18
2022-11-10T05:25:40.833Z,10.20
2022-11-10T05:26:40.815Z,10.18
2022-11-10T05:27:40.806Z,10.18
2022-11-10T05:28:40.827Z,10.17
2022-11-10T05:29:40.783Z,10.17
2022-11-10T05:30:40.764Z,10.17
2022-11-10T05:31:40.766Z,10.16
2022-11-10T05:32:40.745Z,10.18
2022-11-10T05:33:40.727Z,10.20
2022-11-10T05:34:40.736Z,10.20
2022-11-10T05:35:40.717Z,10.22
2022-11-10T05:36:40.705Z,10.20
2022-11-10T05:37:40.690Z,10.22
2022-11-10T05:38:43.743Z,10.22
2022-11-10T05:39:40.696Z,10.22
2022-11-10T05:40:40.647Z,10.20
2022-11-10T05:41:40.632Z,10.20
2022-11-10T05:42:40.602Z,10.17
2022-11-10T05:43:40.592Z,10.17
2022-11-10T05:44:40.584Z,10.14
2022-11-10T05:45:40.607Z,10.13
2022-11-10T05:46:40.561Z,10.11
2022-11-10T05:47:40.565Z,10.09
2022-11-10T05:48:40.543Z,10.07
2022-11-10T05:49:40.547Z,10.07
2022-11-10T05:50:40.510Z,10.04
2022-11-10T05:51:40.526Z,10.02
2022-11-10T05:52:40.486Z,10.02
2022-11-10T05:53:40.469Z,10.04
2022-11-10T05:54:40.470Z,10.04
2022-11-10T05:55:40.459Z,10.02
2022-11-10T05:56:40.440Z,10.04
2022-11-10T05:57:40.430Z,10.04
2022-11-10T05:58:40.432Z,10.04
2022-11-10T05:59:40.674Z,10.04
2022-11-10T06:00:40.380Z,10.02
2022-11-10T06:01:40.405Z,10.04
2022-11-10T06:02:40.389Z,10.02
2022-11-10T06:03:40.388Z,9.99
2022-11-10T06:04:40.342Z,9.99
2022-11-10T06:05:40.320Z,9.99
2022-11-10T06:06:40.369Z,9.98
2022-11-10T06:07:40.293Z,9.98
2022-11-10T06:08:40.414Z,9.98
2022-11-10T06:09:40.269Z,9.95
2022-11-10T06:10:40.283Z,9.95
2022-11-10T06:11:40.235Z,9.93
2022-11-10T06:12:40.344Z,9.91
2022-11-10T06:13:40.250Z,9.89
2022-11-10T06:14:40.214Z,9.88
2022-11-10T06:15:40.224Z,9.85
2022-11-10T06:16:40.196Z,9.85
2022-11-10T06:17:40.194Z,9.81
2022-11-10T06:18:40.161Z,9.81
2022-11-10T06:19:40.170Z,9.80
2022-11-10T06:20:40.130Z,9.77
2022-11-10T06:21:40.103Z,9.77
2022-11-10T06:22:40.109Z,9.77
2022-11-10T06:23:40.087Z,9.78
2022-11-10T06:24:40.121Z,9.77
2022-11-10T06:25:40.069Z,9.78
2022-11-10T06:26:40.057Z,9.81
2022-11-10T06:27:40.038Z,9.81
2022-11-10T06:28:40.028Z,9.85
2022-11-10T06:29:40.016Z,9.83
2022-11-10T06:30:40.027Z,9.85
2022-11-10T06:31:39.989Z,9.85
2022-11-10T06:32:39.978Z,9.85
2022-11-10T06:33:39.968Z,9.88
2022-11-10T06:34:39.941Z,9.86
2022-11-10T06:35:39.942Z,9.86
2022-11-10T06:36:39.934Z,9.88
2022-11-10T06:37:39.902Z,9.88
2022-11-10T06:38:39.890Z,9.91
2022-11-10T06:39:39.884Z,9.92
2022-11-10T06:40:39.890Z,9.92
2022-11-10T06:41:39.874Z,9.93
2022-11-10T06:42:39.866Z,9.93
2022-11-10T06:43:39.841Z,9.95
2022-11-10T06:44:39.826Z,9.92
2022-11-10T06:45:39.808Z,9.91
2022-11-10T06:46:42.395Z,9.91
2022-11-10T06:47:39.803Z,9.86
2022-11-10T06:48:39.777Z,9.86
2022-11-10T06:49:39.776Z,9.88
2022-11-10T06:50:39.741Z,9.86
2022-11-10T06:51:39.731Z,9.86
2022-11-10T06:52:39.727Z,9.86
2022-11-10T06:53:39.701Z,9.86
2022-11-10T06:54:39.694Z,9.86
2022-11-10T06:55:39.675Z,9.85
2022-11-10T06:56:39.669Z,9.86
2022-11-10T06:57:39.654Z,9.86
2022-11-10T06:58:39.641Z,9.81
2022-11-10T06:59:39.634Z,9.80
2022-11-10T07:00:39.618Z,9.81
2022-11-10T07:01:39.610Z,9.78
2022-11-10T07:02:39.588Z,9.77
2022-11-10T07:03:58.527Z,9.77
2022-11-10T07:04:40.559Z,9.78
2022-11-10T07:05:39.552Z,9.75
2022-11-10T07:06:39.576Z,9.75
2022-11-10T07:07:39.532Z,9.73
2022-11-10T07:08:39.541Z,9.74
2022-11-10T07:09:39.531Z,9.74
2022-11-10T07:10:39.492Z,9.75
2022-11-10T07:11:39.480Z,9.74
2022-11-10T07:12:39.489Z,9.73
2022-11-10T07:13:39.439Z,9.74
2022-11-10T07:14:39.443Z,9.71
2022-11-10T07:15:39.426Z,9.74
2022-11-10T07:16:39.462Z,9.73
2022-11-10T07:17:39.391Z,9.74
2022-11-10T07:18:39.381Z,9.74
2022-11-10T07:19:39.368Z,9.74
2022-11-10T07:20:39.359Z,9.75
2022-11-10T07:21:39.352Z,9.77
2022-11-10T07:22:39.331Z,9.77
2022-11-10T07:23:39.321Z,9.75
2022-11-10T07:24:39.309Z,9.75
2022-11-10T07:25:39.278Z,9.77
2022-11-10T07:26:39.317Z,9.77
2022-11-10T07:27:39.256Z,9.75
2022-11-10T07:28:39.235Z,9.78
2022-11-10T07:29:39.239Z,9.77
2022-11-10T07:30:39.239Z,9.77
2022-11-10T07:31:39.221Z,9.78
2022-11-10T07:32:39.240Z,9.81
2022-11-10T07:33:39.176Z,9.81
2022-11-10T07:34:39.212Z,9.85
2022-11-10T07:35:39.188Z,9.85
2022-11-10T07:36:39.157Z,9.85
2022-11-10T07:37:39.142Z,9.86
2022-11-10T07:38:39.118Z,9.86
2022-11-10T07:39:39.105Z,9.86
2022-11-10T07:40:39.109Z,9.88
2022-11-10T07:41:39.074Z,9.89
2022-11-10T07:42:39.087Z,9.91
2022-11-10T07:43:39.090Z,9.91
2022-11-10T07:44:39.034Z,9.93
2022-11-10T07:45:39.037Z,9.95
2022-11-10T07:46:39.026Z,9.95
2022-11-10T07:47:38.994Z,9.98
2022-11-10T07:48:38.990Z,9.99
2022-11-10T07:49:39.017Z,10.01
2022-11-10T07:50:38.974Z,10.04
2022-11-10T07:51:38.942Z,10.06
2022-11-10T07:52:38.936Z,10.06
2022-11-10T07:53:38.924Z,10.07
2022-11-10T07:54:38.930Z,10.10
2022-11-10T07:55:38.916Z,10.11
2022-11-10T07:56:38.874Z,10.13
2022-11-10T07:57:38.900Z,10.17
2022-11-10T07:58:38.886Z,10.18
2022-11-10T07:59:38.840Z,10.20
2022-11-10T08:01:46.279Z,10.20
2022-11-10T08:02:38.814Z,10.22
2022-11-10T08:03:38.803Z,10.26
2022-11-10T08:04:38.853Z,10.28
2022-11-10T08:05:38.775Z,10.31
2022-11-10T08:06:38.897Z,10.34
2022-11-10T08:07:38.873Z,10.35
2022-11-10T08:08:38.746Z,10.35
2022-11-10T08:09:38.731Z,10.38
2022-11-10T08:10:38.699Z,10.38
2022-11-10T08:11:38.700Z,10.39
2022-11-10T08:12:38.679Z,10.43
2022-11-10T08:13:38.689Z,10.44
2022-11-10T08:14:38.659Z,10.46
2022-11-10T08:15:38.690Z,10.47
2022-11-10T08:16:38.630Z,10.49
2022-11-10T08:17:38.640Z,10.49
2022-11-10T08:18:38.614Z,10.51
2022-11-10T08:19:38.588Z,10.54
2022-11-10T08:20:38.590Z,10.54
2022-11-10T08:21:38.581Z,10.55
2022-11-10T08:22:38.588Z,10.55
2022-11-10T08:23:38.546Z,10.57
2022-11-10T08:24:38.522Z,10.60
2022-11-10T08:25:38.504Z,10.60
2022-11-10T08:26:38.509Z,10.63
2022-11-10T08:27:38.500Z,10.65
2022-11-10T08:28:38.500Z,10.68
2022-11-10T08:29:38.457Z,10.68
2022-11-10T08:30:38.437Z,10.69
2022-11-10T08:31:38.449Z,10.70
2022-11-10T08:32:38.427Z,10.73
2022-11-10T08:33:38.411Z,10.76
2022-11-10T08:34:38.421Z,10.78
2022-11-10T08:35:38.404Z,10.80
2022-11-10T08:36:38.372Z,10.83
2022-11-10T08:37:38.377Z,10.84
2022-11-10T08:38:38.357Z,10.86
2022-11-10T08:39:39.482Z,10.88
2022-11-10T08:40:38.355Z,10.90
2022-11-10T08:41:38.303Z,10.93
2022-11-10T08:42:38.306Z,10.95
2022-11-10T08:43:38.313Z,10.95
2022-11-10T08:44:38.297Z,11.01
2022-11-10T08:45:38.250Z,11.02
2022-11-10T08:46:38.245Z,11.05
2022-11-10T08:47:38.252Z,11.08
2022-11-10T08:48:38.242Z,11.11
2022-11-10T08:49:38.456Z,11.13
2022-11-10T08:50:38.202Z,11.19
2022-11-10T08:51:39.344Z,11.20
2022-11-10T08:52:38.174Z,11.23
2022-11-10T08:53:38.145Z,11.23
2022-11-10T08:54:38.144Z,11.27
2022-11-10T08:55:38.134Z,11.30
2022-11-10T08:56:38.123Z,11.31
2022-11-10T08:57:38.108Z,11.36
2022-11-10T08:58:47.317Z,11.39
2022-11-10T08:59:39.079Z,11.42
2022-11-10T09:00:38.053Z,11.44
2022-11-10T09:01:38.060Z,11.44
2022-11-10T09:02:38.066Z,11.48
2022-11-10T09:03:38.021Z,11.49
2022-11-10T09:04:38.105Z,11.53
2022-11-10T09:05:38.009Z,11.54
2022-11-10T09:06:38.036Z,11.59
2022-11-10T09:07:37.982Z,11.60
2022-11-10T09:08:37.971Z,11.63
2022-11-10T09:09:37.938Z,11.66
2022-11-10T09:10:37.946Z,11.69
2022-11-10T09:11:37.937Z,11.70
2022-11-10T09:12:37.910Z,11.75
2022-11-10T09:13:37.919Z,11.77
2022-11-10T09:14:37.871Z,11.78
2022-11-10T09:15:37.874Z,11.81
2022-11-10T09:16:37.867Z,11.81
2022-11-10T09:17:37.853Z,11.85
2022-11-10T09:18:37.825Z,11.87
2022-11-10T09:19:37.882Z,11.90
2022-11-10T09:20:37.837Z,11.93
2022-11-10T09:21:37.793Z,11.94
2022-11-10T09:22:37.820Z,11.97
2022-11-10T09:23:37.787Z,12.00
2022-11-10T09:24:37.761Z,12.01
2022-11-10T09:25:37.749Z,12.03
2022-11-10T09:26:37.751Z,12.04
2022-11-10T09:27:37.726Z,12.05
2022-11-10T09:28:37.712Z,12.08
2022-11-10T09:29:37.688Z,12.11
2022-11-10T09:30:37.681Z,12.12
2022-11-10T09:31:37.707Z,12.13
2022-11-10T09:32:37.655Z,12.15
2022-11-10T09:33:37.650Z,12.19
2022-11-10T09:34:37.629Z,12.21
2022-11-10T09:35:37.607Z,12.23
2022-11-10T09:36:37.609Z,12.25
2022-11-10T09:37:37.597Z,12.29
2022-11-10T09:38:37.640Z,12.30
2022-11-10T09:39:37.557Z,12.33
2022-11-10T09:40:37.536Z,12.36
2022-11-10T09:41:37.550Z,12.37
2022-11-10T09:42:37.555Z,12.40
2022-11-10T09:43:37.527Z,12.41
2022-11-10T09:44:37.495Z,12.43
2022-11-10T09:45:39.394Z,12.49
2022-11-10T09:46:37.478Z,12.52
2022-11-10T09:48:38.469Z,12.58
2022-11-10T09:49:37.438Z,12.62
2022-11-10T09:50:37.417Z,12.63
2022-11-10T09:51:37.418Z,12.67
2022-11-10T09:52:37.397Z,12.69
2022-11-10T09:53:37.395Z,12.74
2022-11-10T09:54:37.428Z,12.76
2022-11-10T09:55:37.368Z,12.76
2022-11-10T09:56:37.344Z,12.77
2022-11-10T09:57:37.339Z,12.81
2022-11-10T09:58:37.304Z,12.84
2022-11-10T09:59:37.327Z,12.88
2022-11-10T10:00:37.284Z,12.89
2022-11-10T10:01:37.315Z,12.95
2022-11-10T10:02:37.267Z,12.96
2022-11-10T10:03:37.257Z,12.98
2022-11-10T10:04:37.225Z,12.99
2022-11-10T10:05:37.252Z,13.01
2022-11-10T10:06:56.929Z,13.03
2022-11-10T10:07:38.252Z,13.03
2022-11-10T10:08:37.187Z,13.03
2022-11-10T10:09:37.177Z,13.01
2022-11-10T10:10:37.191Z,13.03
2022-11-10T10:11:37.164Z,13.06
2022-11-10T10:12:37.130Z,13.06
2022-11-10T10:13:37.135Z,13.06
2022-11-10T10:14:37.115Z,13.09
2022-11-10T10:15:37.091Z,13.12
2022-11-10T10:16:37.133Z,13.13
2022-11-10T10:17:41.004Z,13.14
2022-11-10T10:18:37.094Z,13.19
2022-11-10T10:19:37.105Z,13.19
2022-11-10T10:20:37.065Z,13.19
2022-11-10T10:21:37.049Z,13.21
2022-11-10T10:22:37.014Z,13.24
2022-11-10T10:24:37.971Z,13.28
2022-11-10T10:25:36.963Z,13.32
2022-11-10T10:26:36.948Z,13.36
2022-11-10T10:27:36.964Z,13.38
2022-11-10T10:28:36.923Z,13.38
2022-11-10T10:29:37.611Z,13.38
2022-11-10T10:30:36.910Z,13.39
2022-11-10T10:31:36.904Z,13.39
2022-11-10T10:32:36.892Z,13.41
2022-11-10T10:33:36.872Z,13.43
2022-11-10T10:34:36.854Z,13.46
2022-11-10T10:35:41.658Z,13.47
2022-11-10T10:36:37.923Z,13.47
2022-11-10T10:37:36.852Z,13.51
2022-11-10T10:38:36.837Z,13.54
2022-11-10T10:39:36.789Z,13.54
2022-11-10T10:40:36.791Z,13.54
2022-11-10T10:41:36.794Z,13.54
2022-11-10T10:42:36.762Z,13.55
2022-11-10T10:43:36.773Z,13.54
2022-11-10T10:44:36.718Z,13.53
2022-11-10T10:45:36.803Z,13.50
2022-11-10T10:46:36.713Z,13.48
2022-11-10T10:47:36.698Z,13.47
2022-11-10T10:48:36.687Z,13.50
2022-11-10T10:49:36.689Z,13.53
2022-11-10T10:50:36.663Z,13.53
2022-11-10T10:51:36.627Z,13.55
2022-11-10T10:52:36.622Z,13.59
2022-11-10T10:53:36.616Z,13.59
2022-11-10T10:54:36.599Z,13.59
2022-11-10T10:55:36.590Z,13.57
2022-11-10T10:56:36.579Z,13.59
2022-11-10T10:57:36.561Z,13.61
2022-11-10T10:58:36.597Z,13.59
2022-11-10T10:59:36.542Z,13.59
2022-11-10T11:00:36.506Z,13.61
2022-11-10T11:01:36.842Z,13.63
2022-11-10T11:02:36.577Z,13.65
2022-11-10T11:03:36.924Z,13.66
2022-11-10T11:04:36.681Z,13.65
2022-11-10T11:05:36.642Z,13.69
2022-11-10T11:06:36.493Z,13.72
2022-11-10T11:07:36.457Z,13.75
2022-11-10T11:08:36.701Z,13.76
2022-11-10T11:09:36.557Z,13.79
2022-11-10T11:10:36.556Z,13.79
2022-11-10T11:11:36.374Z,13.76
2022-11-10T11:12:36.372Z,13.79
2022-11-10T11:13:36.348Z,13.76
2022-11-10T11:14:38.653Z,13.80
2022-11-10T11:15:37.327Z,13.83
2022-11-10T11:16:36.294Z,13.87
2022-11-10T11:17:36.359Z,13.84
2022-11-10T11:18:36.273Z,13.86
2022-11-10T11:19:36.307Z,13.84
2022-11-10T11:20:36.263Z,13.86
2022-11-10T11:21:36.265Z,13.88
2022-11-10T11:22:36.228Z,13.94
2022-11-10T11:23:36.233Z,13.96
2022-11-10T11:24:36.216Z,13.99
2022-11-10T11:25:36.219Z,13.99
2022-11-10T11:26:36.164Z,13.99
2022-11-10T11:27:36.183Z,14.01
2022-11-10T11:28:36.156Z,14.02
2022-11-10T11:29:36.153Z,14.05
2022-11-10T11:30:36.132Z,14.04
2022-11-10T11:31:41.679Z,14.05
2022-11-10T11:32:37.101Z,14.04
2022-11-10T11:33:36.093Z,14.06
2022-11-10T11:34:36.082Z,14.09
2022-11-10T11:35:36.074Z,14.16
2022-11-10T11:36:36.052Z,14.21
2022-11-10T11:37:36.043Z,14.24
2022-11-10T11:38:36.042Z,14.23
2022-11-10T11:39:36.003Z,14.24
2022-11-10T11:40:36.004Z,14.27
2022-11-10T11:41:35.993Z,14.26
2022-11-10T11:42:35.971Z,14.27
2022-11-10T11:43:35.962Z,14.30
2022-11-10T11:44:35.965Z,14.31
2022-11-10T11:45:35.929Z,14.34
2022-11-10T11:46:35.920Z,14.34
2022-11-10T11:47:35.909Z,14.34
2022-11-10T11:48:35.927Z,14.35
2022-11-10T11:49:35.891Z,14.31
2022-11-10T11:50:35.867Z,14.34
2022-11-10T11:51:35.849Z,14.35
2022-11-10T11:52:35.851Z,14.38
2022-11-10T11:53:35.828Z,14.38
2022-11-10T11:54:36.549Z,14.36
2022-11-10T11:55:35.810Z,14.35
2022-11-10T11:56:35.778Z,14.35
2022-11-10T11:57:39.865Z,14.38
2022-11-10T11:58:35.760Z,14.38
2022-11-10T11:59:35.748Z,14.42
2022-11-10T12:00:35.729Z,14.44
2022-11-10T12:01:35.730Z,14.45
2022-11-10T12:02:35.795Z,14.49
2022-11-10T12:03:35.706Z,14.49
2022-11-10T12:04:35.689Z,14.48
2022-11-10T12:05:35.682Z,14.46
2022-11-10T12:06:35.709Z,14.49
2022-11-10T12:07:35.653Z,14.49
2022-11-10T12:08:35.666Z,14.52
2022-11-10T12:09:35.628Z,14.53
2022-11-10T12:10:39.232Z,14.52
2022-11-10T12:11:36.646Z,14.52
2022-11-10T12:12:36.492Z,14.48
2022-11-10T12:13:35.568Z,14.46
2022-11-10T12:14:35.578Z,14.45
2022-11-10T12:15:35.555Z,14.45
2022-11-10T12:16:35.517Z,14.49
2022-11-10T12:17:35.528Z,14.46
2022-11-10T12:18:35.521Z,14.49
2022-11-10T12:19:35.487Z,14.52
2022-11-10T12:20:35.487Z,14.48
2022-11-10T12:21:35.505Z,14.52
2022-11-10T12:22:35.467Z,14.53
2022-11-10T12:23:35.458Z,14.53
2022-11-10T12:24:35.450Z,14.54
2022-11-10T12:25:35.413Z,14.54
2022-11-10T12:26:35.449Z,14.53
2022-11-10T12:27:35.426Z,14.49
2022-11-10T12:28:35.409Z,14.49
2022-11-10T12:29:35.383Z,14.52
2022-11-10T12:30:35.342Z,14.52
2022-11-10T12:31:35.353Z,14.54
2022-11-10T12:32:35.313Z,14.56
2022-11-10T12:33:35.304Z,14.59
2022-11-10T12:34:35.305Z,14.61
2022-11-10T12:35:35.296Z,14.63
2022-11-10T12:36:35.282Z,14.64
2022-11-10T12:37:35.285Z,14.64
2022-11-10T12:38:35.256Z,14.66
2022-11-10T12:39:35.245Z,14.66
2022-11-10T12:40:39.157Z,14.66
2022-11-10T12:41:36.215Z,14.64
2022-11-10T12:42:35.223Z,14.64
2022-11-10T12:43:35.186Z,14.64
2022-11-10T12:44:35.167Z,14.63
2022-11-10T12:45:35.150Z,14.63
2022-11-10T12:46:35.131Z,14.67
2022-11-10T12:47:35.141Z,14.67
2022-11-10T12:48:35.130Z,14.66
2022-11-10T12:49:35.104Z,14.67
2022-11-10T12:50:35.095Z,14.67
2022-11-10T12:51:35.096Z,14.71
2022-11-10T12:52:35.103Z,14.72
2022-11-10T12:53:35.072Z,14.74
2022-11-10T12:54:35.050Z,14.74
2022-11-10T12:55:35.022Z,14.72
2022-11-10T12:56:35.027Z,14.72
2022-11-10T12:57:35.022Z,14.71
2022-11-10T12:58:35.015Z,14.72
2022-11-10T12:59:34.993Z,14.79